Time;durP1;ratioP1;P1;durP2;ratioP2;P2;SDS_P1;SDS_P2;PMS_P1;PMS_P2;Temp;Humidity;BMP_temperature;BMP_pressure;BME280_temperature;BME280_humidity;BME280_pressure;Samples;Min_cycle;Max_cycle;Signal;HPM_P1;HPM_P2
2021/03/02 00:01:14;;;;;;;23.50;11.30;;;3.10;99.90;;;;;;5017466;28;20040;-70
2021/03/02 00:03:59;;;;;;;24.38;11.20;;;3.00;99.90;;;;;;5017079;28;20411;-71
2021/03/02 00:06:43;;;;;;;26.75;11.88;;;2.90;99.90;;;;;;5037104;28;20045;-74
2021/03/02 00:09:28;;;;;;;33.22;16.52;;;2.80;99.90;;;;;;5030048;28;20260;-71
2021/03/02 00:12:14;;;;;;;43.63;21.83;;;2.80;99.90;;;;;;5038244;28;20040;-70
2021/03/02 00:14:58;;;;;;;33.85;17.13;;;2.70;99.90;;;;;;5021785;28;20069;-71
2021/03/02 00:17:47;;;;;;;28.70;14.65;;;2.70;99.90;;;;;;5034072;28;20092;-71
2021/03/02 00:20:34;;;;;;;33.38;14.05;;;2.70;99.90;;;;;;5026567;28;20383;-71
2021/03/02 00:23:41;;;;;;;21.63;9.98;;;2.60;99.90;;;;;;5018202;28;20064;-71
2021/03/02 00:26:30;;;;;;;19.70;10.23;;;2.60;99.90;;;;;;5011884;28;20403;-71
2021/03/02 00:29:17;;;;;;;23.13;11.68;;;2.60;99.90;;;;;;5011984;28;20057;-71
2021/03/02 00:32:01;;;;;;;28.20;12.50;;;2.60;99.90;;;;;;5015463;28;20083;-71
2021/03/02 00:34:47;;;;;;;35.42;16.80;;;2.40;99.90;;;;;;5012038;28;20053;-71
2021/03/02 00:37:31;;;;;;;39.97;19.48;;;2.20;99.90;;;;;;5011851;28;20054;-71
2021/03/02 00:40:17;;;;;;;43.92;20.52;;;2.20;99.90;;;;;;5011302;28;20566;-70
2021/03/02 00:43:01;;;;;;;46.47;20.85;;;2.20;99.90;;;;;;5017950;28;20044;-71
2021/03/02 00:45:46;;;;;;;46.03;20.73;;;2.20;99.90;;;;;;5029290;28;20414;-70
2021/03/02 00:48:30;;;;;;;38.13;20.23;;;2.20;99.90;;;;;;5031939;28;20040;-70
2021/03/02 00:51:14;;;;;;;40.33;18.83;;;2.10;99.90;;;;;;5017387;28;20052;-71
2021/03/02 00:53:58;;;;;;;41.72;19.70;;;2.10;99.90;;;;;;5016287;28;20177;-71
2021/03/02 00:56:42;;;;;;;47.10;23.88;;;2.00;99.90;;;;;;5029137;28;20126;-71
2021/03/02 00:59:26;;;;;;;48.50;23.35;;;1.90;99.90;;;;;;5011267;28;20049;-71
2021/03/02 01:02:10;;;;;;;55.90;26.63;;;1.80;99.90;;;;;;5026144;28;20506;-71
2021/03/02 01:04:55;;;;;;;52.55;24.38;;;1.80;99.90;;;;;;5024704;28;20041;-70
2021/03/02 01:07:39;;;;;;;44.47;21.55;;;1.70;99.90;;;;;;5044948;28;20056;-70
2021/03/02 01:10:23;;;;;;;48.83;22.95;;;1.70;99.90;;;;;;5014911;28;20092;-71
2021/03/02 01:13:07;;;;;;;47.30;23.55;;;1.70;99.90;;;;;;5013752;28;20072;-70
2021/03/02 01:15:51;;;;;;;43.55;19.70;;;1.70;99.90;;;;;;5011598;28;20049;-71
2021/03/02 01:18:35;;;;;;;44.42;19.17;;;1.70;99.90;;;;;;5028072;28;20059;-70
2021/03/02 01:21:19;;;;;;;39.33;16.90;;;1.70;99.90;;;;;;5011199;28;20045;-71
2021/03/02 01:24:04;;;;;;;38.45;17.15;;;1.70;99.90;;;;;;5013419;28;20101;-70
2021/03/02 01:26:48;;;;;;;39.90;17.95;;;1.70;99.90;;;;;;5010826;28;20044;-71
2021/03/02 01:29:32;;;;;;;42.35;19.35;;;1.60;99.90;;;;;;5010960;28;20472;-70
2021/03/02 01:32:16;;;;;;;41.95;18.83;;;1.60;99.90;;;;;;5026074;28;20107;-71
2021/03/02 01:35:00;;;;;;;37.63;16.85;;;1.50;99.90;;;;;;5023547;28;20053;-71
2021/03/02 01:37:44;;;;;;;34.20;15.95;;;1.40;99.90;;;;;;5016630;28;20212;-71
2021/03/02 01:40:29;;;;;;;39.75;18.25;;;1.40;99.90;;;;;;5017529;28;20057;-71
2021/03/02 01:43:14;;;;;;;44.28;20.85;;;1.20;99.90;;;;;;5014300;28;20443;-71
2021/03/02 01:45:58;;;;;;;40.17;19.70;;;1.10;99.90;;;;;;5025621;28;20040;-71
2021/03/02 01:48:43;;;;;;;38.13;17.95;;;1.10;99.90;;;;;;5019306;28;20103;-70
2021/03/02 01:51:27;;;;;;;36.08;17.75;;;1.10;99.90;;;;;;5029382;28;20052;-70
2021/03/02 01:54:12;;;;;;;32.78;15.93;;;1.10;99.90;;;;;;5025961;28;20460;-71
2021/03/02 01:56:56;;;;;;;32.95;15.57;;;1.10;99.90;;;;;;5010745;28;20475;-70
2021/03/02 01:59:40;;;;;;;27.73;12.55;;;1.00;99.90;;;;;;5027741;28;20059;-71
2021/03/02 02:02:34;;;;;;;29.75;12.77;;;1.00;99.90;;;;;;5025384;28;20187;-70
2021/03/02 02:05:20;;;;;;;;;;;0.90;99.90;;;;;;5027086;28;20084;-71
2021/03/02 02:08:07;;;;;;;30.80;15.10;;;0.80;99.90;;;;;;5025512;28;20027;-70
2021/03/02 02:10:53;;;;;;;37.08;17.25;;;0.70;99.90;;;;;;5017277;28;20068;-71
2021/03/02 02:13:46;;;;;;;34.38;15.18;;;0.70;99.90;;;;;;5014115;28;20438;-71
2021/03/02 02:16:34;;;;;;;30.08;15.48;;;0.70;99.90;;;;;;5010252;28;20043;-71
2021/03/02 02:20:00;;;;;;;31.67;14.63;;;0.80;99.90;;;;;;5012076;28;20425;-71
2021/03/02 02:23:18;;;;;;;31.38;15.98;;;0.70;99.90;;;;;;5012888;28;20091;-70
2021/03/02 02:26:18;;;;;;;31.67;14.45;;;0.70;99.90;;;;;;5027810;28;20044;-71
2021/03/02 02:29:03;;;;;;;30.27;14.27;;;0.70;99.90;;;;;;5017284;28;20056;-70
2021/03/02 02:31:50;;;;;;;27.95;14.77;;;0.60;99.90;;;;;;5009572;28;20052;-71
2021/03/02 02:34:37;;;;;;;32.60;16.33;;;0.50;99.90;;;;;;5015509;28;20049;-71
2021/03/02 02:37:23;;;;;;;37.10;16.67;;;0.50;99.90;;;;;;5026424;28;20121;-71
2021/03/02 02:40:08;;;;;;;38.15;17.27;;;0.50;99.90;;;;;;5017035;28;20052;-70
2021/03/02 02:42:55;;;;;;;34.22;15.85;;;0.50;99.90;;;;;;5024172;28;20411;-71
2021/03/02 02:45:40;;;;;;;30.73;14.38;;;0.50;99.90;;;;;;5022919;28;20052;-71
2021/03/02 02:48:25;;;;;;;33.10;15.25;;;0.50;99.90;;;;;;5016609;28;20064;-70
2021/03/02 02:51:11;;;;;;;28.08;13.10;;;0.40;99.90;;;;;;5029887;28;20548;-70
2021/03/02 02:53:56;;;;;;;28.30;13.35;;;0.40;99.90;;;;;;5017685;28;20099;-71
2021/03/02 02:56:43;;;;;;;24.25;12.48;;;0.30;99.90;;;;;;5013616;28;20557;-71
2021/03/02 02:59:34;;;;;;;25.40;12.23;;;0.30;99.90;;;;;;5023183;28;20065;-70
2021/03/02 03:02:28;;;;;;;24.83;13.18;;;0.30;99.90;;;;;;5022829;28;20073;-70
2021/03/02 03:05:21;;;;;;;25.67;12.65;;;0.20;99.90;;;;;;5014087;28;20129;-70
2021/03/02 03:08:12;;;;;;;26.70;12.02;;;0.20;99.90;;;;;;5024246;28;20176;-70
2021/03/02 03:10:59;;;;;;;26.15;12.60;;;0.20;99.90;;;;;;5012193;28;20176;-70
2021/03/02 03:13:46;;;;;;;30.05;14.38;;;0.20;99.90;;;;;;5021413;28;20470;-71
2021/03/02 03:16:33;;;;;;;27.20;12.70;;;0.10;99.90;;;;;;5024728;28;20449;-70
2021/03/02 03:19:27;;;;;;;26.52;13.45;;;0.10;99.90;;;;;;5027790;28;20053;-70
2021/03/02 03:22:12;;;;;;;27.33;12.38;;;0.00;99.90;;;;;;5027154;28;20056;-70
2021/03/02 03:24:57;;;;;;;28.92;12.93;;;0.00;99.90;;;;;;5021562;28;20073;-70
2021/03/02 03:27:54;;;;;;;29.83;12.35;;;0.00;99.90;;;;;;5015433;28;20128;-71
2021/03/02 03:30:39;;;;;;;28.60;11.32;;;0.00;99.90;;;;;;5013180;28;20133;-71
2021/03/02 03:33:24;;;;;;;31.90;14.32;;;0.00;99.90;;;;;;5020569;28;20111;-71
2021/03/02 03:36:11;;;;;;;26.00;13.23;;;0.00;99.90;;;;;;5012618;28;20053;-71
2021/03/02 03:38:55;;;;;;;30.00;14.10;;;-0.10;99.90;;;;;;5013413;28;20052;-72
2021/03/02 03:41:40;;;;;;;29.00;13.18;;;-0.20;99.90;;;;;;5013808;28;20048;-70
2021/03/02 03:44:24;;;;;;;34.20;15.15;;;-0.20;99.90;;;;;;5028080;28;20040;-71
2021/03/02 03:47:08;;;;;;;27.67;14.20;;;-0.30;99.90;;;;;;5024402;28;20399;-70
2021/03/02 03:49:52;;;;;;;34.80;14.00;;;-0.30;99.90;;;;;;5018835;28;20040;-70
2021/03/02 03:52:47;;;;;;;29.83;13.82;;;-0.30;99.90;;;;;;5031497;28;20501;-71
2021/03/02 03:55:42;;;;;;;27.25;12.88;;;-0.30;99.90;;;;;;5021530;28;20044;-71
2021/03/02 03:58:29;;;;;;;24.25;12.30;;;-0.20;99.90;;;;;;5018472;28;20052;-70
2021/03/02 04:01:14;;;;;;;17.67;9.25;;;-0.10;99.90;;;;;;5018339;28;20089;-71
2021/03/02 04:03:59;;;;;;;19.65;10.07;;;-0.10;99.90;;;;;;5014657;28;20482;-70
2021/03/02 04:06:44;;;;;;;21.00;10.82;;;-0.10;99.90;;;;;;5011812;28;20434;-71
2021/03/02 04:09:29;;;;;;;23.58;10.57;;;-0.20;99.90;;;;;;5012122;28;20104;-70
2021/03/02 04:12:14;;;;;;;22.27;10.15;;;-0.30;99.90;;;;;;5025038;28;20107;-71
2021/03/02 04:14:58;;;;;;;16.15;7.25;;;-0.30;99.90;;;;;;5026271;28;20075;-70
2021/03/02 04:18:10;;;;;;;19.83;9.60;;;-0.30;99.90;;;;;;5031993;28;20044;-71
2021/03/02 04:20:55;;;;;;;24.30;11.32;;;-0.40;99.90;;;;;;5017776;28;20062;-70
2021/03/02 04:23:40;;;;;;;23.60;10.70;;;-0.40;99.90;;;;;;5022757;28;20061;-71
2021/03/02 04:26:24;;;;;;;23.50;11.90;;;-0.40;99.90;;;;;;5033953;28;20044;-70
2021/03/02 04:29:08;;;;;;;19.83;8.68;;;-0.30;99.90;;;;;;5017769;28;20666;-70
2021/03/02 04:31:52;;;;;;;20.15;9.68;;;-0.30;99.90;;;;;;5011317;28;20041;-70
2021/03/02 04:34:36;;;;;;;22.23;9.70;;;-0.40;99.90;;;;;;5021122;28;20049;-71
2021/03/02 04:37:20;;;;;;;23.00;9.90;;;-0.40;99.90;;;;;;5026408;28;20167;-70
2021/03/02 04:40:06;;;;;;;19.23;9.65;;;-0.40;99.90;;;;;;5027731;28;20064;-71
2021/03/02 04:42:51;;;;;;;19.73;8.23;;;-0.50;99.90;;;;;;5015491;28;20038;-71
2021/03/02 04:45:35;;;;;;;19.13;8.50;;;-0.40;99.90;;;;;;5016952;28;20153;-71
2021/03/02 04:48:19;;;;;;;17.40;8.05;;;-0.40;99.90;;;;;;5025060;28;20251;-70
2021/03/02 04:51:04;;;;;;;18.58;8.15;;;-0.40;99.90;;;;;;5015872;28;20586;-71
2021/03/02 04:53:49;;;;;;;17.80;7.15;;;-0.30;99.90;;;;;;5025565;28;20049;-70
2021/03/02 04:56:33;;;;;;;14.95;6.72;;;-0.40;99.90;;;;;;5018425;28;20424;-70
2021/03/02 04:59:16;;;;;;;18.88;7.57;;;-0.50;99.90;;;;;;5029517;28;20060;-71
2021/03/02 05:02:01;;;;;;;17.38;6.95;;;-0.60;99.90;;;;;;5027155;28;20204;-71
2021/03/02 05:04:45;;;;;;;18.83;7.50;;;-0.60;99.90;;;;;;5026971;28;20125;-71
2021/03/02 05:07:29;;;;;;;13.20;6.55;;;-0.60;99.90;;;;;;5014583;28;20120;-71
2021/03/02 05:10:15;;;;;;;15.27;7.13;;;-0.70;99.90;;;;;;5011885;28;20096;-70
2021/03/02 05:12:59;;;;;;;18.85;8.23;;;-0.70;99.90;;;;;;5023945;28;20052;-71
2021/03/02 05:15:43;;;;;;;23.85;9.70;;;-0.60;99.90;;;;;;5021621;28;20105;-70
2021/03/02 05:18:28;;;;;;;17.58;7.97;;;-0.70;99.90;;;;;;5029496;28;20587;-71
2021/03/02 05:21:12;;;;;;;19.77;7.30;;;-0.60;99.90;;;;;;5026408;28;20040;-70
2021/03/02 05:23:56;;;;;;;15.15;7.05;;;-0.60;99.90;;;;;;5013206;28;20068;-70
2021/03/02 05:26:40;;;;;;;16.38;7.20;;;-0.60;99.90;;;;;;5016936;28;20068;-71
2021/03/02 05:29:24;;;;;;;15.93;7.70;;;-0.60;99.90;;;;;;5010831;28;20364;-71
2021/03/02 05:32:08;;;;;;;14.02;6.25;;;-0.70;99.90;;;;;;5012473;28;20048;-70
2021/03/02 05:34:52;;;;;;;22.38;7.38;;;-0.60;99.90;;;;;;5030507;28;20512;-71
2021/03/02 05:37:36;;;;;;;15.73;6.82;;;-0.70;99.90;;;;;;5019089;28;20041;-71
2021/03/02 05:40:20;;;;;;;18.05;7.05;;;-0.60;99.90;;;;;;5022742;28;20551;-70
2021/03/02 05:43:05;;;;;;;16.73;6.20;;;-0.60;99.90;;;;;;5020727;28;20079;-71
2021/03/02 05:45:50;;;;;;;15.55;6.57;;;-0.80;99.90;;;;;;5016729;28;20091;-70
2021/03/02 05:48:34;;;;;;;15.30;5.97;;;-0.80;99.90;;;;;;5018229;28;20128;-70
2021/03/02 05:51:19;;;;;;;14.80;7.90;;;-0.90;99.90;;;;;;5025588;28;20382;-71
2021/03/02 05:54:03;;;;;;;17.90;8.20;;;-0.80;99.90;;;;;;5029084;28;20588;-70
2021/03/02 05:56:47;;;;;;;17.63;8.18;;;-0.80;99.90;;;;;;5016274;28;20461;-71
2021/03/02 05:59:33;;;;;;;21.85;10.18;;;-0.90;99.90;;;;;;5020603;28;20430;-71
2021/03/02 06:02:20;;;;;;;15.88;8.20;;;-0.90;99.90;;;;;;5019921;28;20052;-71
2021/03/02 06:05:05;;;;;;;14.43;6.57;;;-0.90;99.90;;;;;;5022825;28;20049;-70
2021/03/02 06:07:49;;;;;;;13.27;6.47;;;-1.00;99.90;;;;;;5011298;28;20045;-71
2021/03/02 06:10:35;;;;;;;13.18;6.95;;;-1.00;99.90;;;;;;5017636;28;20107;-70
2021/03/02 06:13:25;;;;;;;18.23;7.38;;;-1.00;99.90;;;;;;5010903;28;21712;-71
2021/03/02 06:16:09;;;;;;;17.35;7.57;;;-1.00;99.90;;;;;;5011797;28;20083;-71
2021/03/02 06:18:54;;;;;;;17.27;7.78;;;-1.00;99.90;;;;;;5017587;28;20041;-71
2021/03/02 06:21:38;;;;;;;15.02;7.20;;;-0.90;99.90;;;;;;5018601;28;20359;-71
2021/03/02 06:24:41;;;;;;;19.02;7.70;;;-1.00;99.90;;;;;;5014203;28;20535;-71
2021/03/02 06:27:25;;;;;;;17.17;7.20;;;-0.90;99.90;;;;;;5019991;28;20083;-70
2021/03/02 06:30:14;;;;;;;12.50;6.38;;;-1.00;99.90;;;;;;5015276;28;20103;-70
2021/03/02 06:32:59;;;;;;;16.90;8.00;;;-0.90;99.90;;;;;;5019389;28;20655;-70
2021/03/02 06:35:45;;;;;;;18.77;8.35;;;-0.90;99.90;;;;;;5008947;28;20045;-71
2021/03/02 06:38:34;;;;;;;23.38;9.77;;;-0.80;99.90;;;;;;5012283;28;20084;-70
2021/03/02 06:41:21;;;;;;;17.42;8.07;;;-0.90;99.90;;;;;;5016720;28;20064;-70
2021/03/02 06:44:13;;;;;;;21.30;9.52;;;-1.00;99.90;;;;;;5011875;28;20573;-71
2021/03/02 06:46:57;;;;;;;17.58;7.50;;;-1.00;99.90;;;;;;5007780;28;20080;-71
2021/03/02 06:49:44;;;;;;;16.20;7.15;;;-0.80;99.90;;;;;;5013170;28;20057;-70
2021/03/02 06:52:42;;;;;;;19.58;9.27;;;-0.70;99.90;;;;;;5014559;28;20136;-70
2021/03/02 06:55:27;;;;;;;16.70;7.85;;;-0.70;99.90;;;;;;5011066;28;20152;-71
2021/03/02 06:58:24;;;;;;;15.63;7.63;;;-0.70;99.90;;;;;;5010677;28;20053;-70
2021/03/02 07:01:09;;;;;;;16.67;8.05;;;-0.50;99.90;;;;;;5015494;28;20096;-71
2021/03/02 07:04:10;;;;;;;20.10;8.98;;;-0.60;99.90;;;;;;5016800;28;20049;-70
2021/03/02 07:06:56;;;;;;;15.35;8.30;;;-0.60;99.90;;;;;;5023418;28;20045;-70
2021/03/02 07:09:41;;;;;;;22.73;9.57;;;-0.60;99.90;;;;;;5024537;28;20044;-70
2021/03/02 07:12:28;;;;;;;19.75;9.20;;;-0.50;99.90;;;;;;5028002;28;20048;-70
2021/03/02 07:15:17;;;;;;;25.35;10.35;;;-0.40;99.90;;;;;;5019952;28;20464;-71
2021/03/02 07:18:03;;;;;;;21.85;10.20;;;-0.30;99.90;;;;;;5024164;28;20087;-71
2021/03/02 07:20:50;;;;;;;18.90;9.27;;;-0.20;99.90;;;;;;5015989;28;20099;-70
2021/03/02 07:23:37;;;;;;;24.00;10.35;;;-0.10;99.90;;;;;;5026727;28;20056;-70
2021/03/02 07:26:22;;;;;;;20.63;10.13;;;0.10;99.90;;;;;;5018958;28;20044;-70
2021/03/02 07:29:06;;;;;;;27.77;11.20;;;0.10;99.90;;;;;;5021789;28;20049;-70
2021/03/02 07:31:51;;;;;;;24.48;10.90;;;0.10;99.90;;;;;;5024934;28;20079;-71
2021/03/02 07:34:36;;;;;;;24.83;11.93;;;0.30;99.90;;;;;;5025784;28;20084;-71
2021/03/02 07:37:21;;;;;;;23.05;11.07;;;0.70;99.90;;;;;;5022331;28;20091;-70
2021/03/02 07:40:09;;;;;;;24.08;10.38;;;0.90;99.90;;;;;;5017269;28;20189;-70
2021/03/02 07:42:53;;;;;;;22.67;12.02;;;1.10;99.90;;;;;;5022768;28;20082;-70
2021/03/02 07:45:37;;;;;;;19.67;10.48;;;1.30;99.90;;;;;;5020177;28;20061;-70
2021/03/02 07:48:25;;;;;;;22.77;11.30;;;1.40;99.90;;;;;;5026348;28;20056;-70
2021/03/02 07:51:23;;;;;;;18.50;11.05;;;1.50;99.90;;;;;;5019491;28;20057;-70
2021/03/02 07:54:16;;;;;;;19.45;9.95;;;2.30;99.90;;;;;;5013773;28;20177;-71
2021/03/02 07:57:16;;;;;;;19.27;10.07;;;3.40;99.90;;;;;;5013660;28;20398;-70
2021/03/02 08:00:16;;;;;;;21.60;11.38;;;4.30;99.90;;;;;;5015543;28;20088;-70
2021/03/02 08:03:25;;;;;;;18.30;9.18;;;5.20;99.90;;;;;;5015628;28;20127;-71
2021/03/02 08:06:30;;;;;;;17.88;9.82;;;6.00;99.90;;;;;;5015319;28;20108;-71
2021/03/02 08:09:28;;;;;;;20.67;10.13;;;6.90;99.90;;;;;;5027757;28;20047;-71
2021/03/02 08:12:35;;;;;;;17.98;9.38;;;7.40;99.90;;;;;;5017802;28;20064;-71
2021/03/02 08:15:19;;;;;;;17.30;9.35;;;8.10;99.90;;;;;;5017944;28;20104;-71
2021/03/02 08:18:32;;;;;;;13.30;9.55;;;8.70;99.90;;;;;;5016396;28;20069;-71
2021/03/02 08:21:18;;;;;;;;;;;9.00;99.90;;;;;;5026141;28;20060;-71
2021/03/02 08:24:02;;;;;;;17.38;9.52;;;9.50;99.90;;;;;;5027734;28;20334;-71
2021/03/02 08:26:47;;;;;;;17.13;10.00;;;10.00;99.90;;;;;;5015561;28;20052;-71
2021/03/02 08:29:31;;;;;;;13.63;9.23;;;10.30;99.90;;;;;;5021334;28;20050;-71
2021/03/02 08:32:17;;;;;;;13.55;8.70;;;10.60;99.90;;;;;;5021315;28;20103;-71
2021/03/02 08:35:09;;;;;;;14.73;9.43;;;10.90;99.90;;;;;;5017716;28;20052;-71
2021/03/02 08:37:56;;;;;;;15.75;9.07;;;11.00;99.90;;;;;;5018567;28;20402;-71
2021/03/02 08:40:46;;;;;;;13.85;8.77;;;11.20;99.90;;;;;;5021843;28;20037;-72
2021/03/02 08:43:35;;;;;;;15.02;9.15;;;11.20;99.90;;;;;;5024381;28;20092;-72
2021/03/02 08:46:24;;;;;;;13.45;8.40;;;11.40;99.90;;;;;;5020330;28;20454;-70
2021/03/02 08:49:10;;;;;;;14.45;9.73;;;11.10;99.90;;;;;;5022242;28;20077;-71
2021/03/02 08:52:01;;;;;;;15.48;9.73;;;11.10;99.90;;;;;;5026365;28;20048;-69
2021/03/02 08:54:50;;;;;;;15.15;9.82;;;11.40;99.90;;;;;;5020235;28;20454;-71
2021/03/02 08:57:47;;;;;;;13.65;9.60;;;11.70;99.90;;;;;;5015980;28;20096;-69
2021/03/02 09:00:31;;;;;;;16.17;10.52;;;12.10;99.90;;;;;;5018192;28;20359;-69
2021/03/02 09:03:21;;;;;;;15.77;10.23;;;12.70;99.90;;;;;;5016673;28;20614;-70
2021/03/02 09:06:24;;;;;;;14.32;10.05;;;12.90;99.90;;;;;;5013975;28;20053;-70
2021/03/02 09:09:12;;;;;;;13.30;10.02;;;13.10;99.40;;;;;;5024745;28;20098;-69
2021/03/02 09:11:58;;;;;;;13.23;9.65;;;12.80;99.80;;;;;;5024810;28;20513;-69
2021/03/02 09:14:42;;;;;;;13.95;10.00;;;12.40;99.90;;;;;;5021902;28;20088;-71
2021/03/02 09:17:26;;;;;;;18.17;10.63;;;11.60;99.90;;;;;;5030586;28;20082;-70
2021/03/02 09:20:11;;;;;;;13.88;9.57;;;10.90;99.90;;;;;;5025942;28;20728;-70
2021/03/02 09:22:58;;;;;;;14.65;9.60;;;10.60;99.90;;;;;;5026605;28;20039;-70
2021/03/02 09:25:43;;;;;;;14.00;10.00;;;10.40;99.90;;;;;;5022274;28;20512;-70
2021/03/02 09:28:27;;;;;;;16.60;11.05;;;10.00;99.90;;;;;;5018868;28;20091;-69
2021/03/02 09:31:13;;;;;;;16.50;11.45;;;9.80;99.90;;;;;;5016173;28;20056;-69
2021/03/02 09:33:59;;;;;;;18.75;10.85;;;9.20;99.90;;;;;;5023923;28;20061;-70
2021/03/02 09:36:44;;;;;;;13.88;10.48;;;9.30;99.90;;;;;;5011838;28;20091;-70
2021/03/02 09:39:29;;;;;;;19.77;12.00;;;9.10;99.90;;;;;;5020724;28;20040;-70
2021/03/02 09:42:19;;;;;;;16.20;11.23;;;8.80;99.90;;;;;;5017031;28;20076;-72
2021/03/02 09:45:09;;;;;;;19.58;11.48;;;8.80;99.90;;;;;;5029914;28;20040;-69
2021/03/02 09:48:06;;;;;;;21.17;13.43;;;8.90;99.90;;;;;;5027733;28;20048;-71
2021/03/02 09:50:50;;;;;;;15.80;10.77;;;8.90;99.90;;;;;;5029322;28;20095;-72
2021/03/02 09:53:36;;;;;;;17.90;11.10;;;8.80;99.90;;;;;;5043254;28;20182;-71
2021/03/02 09:56:20;;;;;;;20.50;11.75;;;8.80;99.90;;;;;;5031812;28;20099;-71
2021/03/02 09:59:06;;;;;;;18.27;10.77;;;8.80;99.90;;;;;;5022235;28;20127;-71
2021/03/02 10:01:51;;;;;;;17.55;10.38;;;8.80;99.90;;;;;;5014429;28;20052;-71
2021/03/02 10:04:36;;;;;;;19.98;10.75;;;8.90;99.90;;;;;;5029470;28;20155;-72
2021/03/02 10:07:20;;;;;;;21.17;11.82;;;8.90;99.90;;;;;;5029239;28;20064;-71
2021/03/02 10:10:04;;;;;;;18.92;11.45;;;8.80;99.90;;;;;;5020524;28;20091;-70
2021/03/02 10:13:01;;;;;;;19.92;11.75;;;8.90;99.90;;;;;;5023074;28;20070;-71
2021/03/02 10:15:45;;;;;;;21.52;11.85;;;9.00;99.90;;;;;;5027749;28;20185;-71
2021/03/02 10:18:30;;;;;;;20.60;12.70;;;8.90;99.90;;;;;;5025819;28;20049;-70
2021/03/02 10:21:14;;;;;;;20.13;11.85;;;8.80;99.90;;;;;;5030010;28;20557;-70
2021/03/02 10:23:59;;;;;;;18.05;11.02;;;9.00;99.90;;;;;;5029599;28;20503;-72
2021/03/02 10:26:44;;;;;;;19.58;12.10;;;9.10;99.90;;;;;;5009978;28;20041;-71
2021/03/02 10:29:29;;;;;;;21.35;11.77;;;9.30;99.90;;;;;;5009998;28;20415;-70
2021/03/02 10:32:14;;;;;;;20.17;11.43;;;9.40;99.90;;;;;;5021929;28;20099;-70
2021/03/02 10:34:58;;;;;;;19.02;11.45;;;9.50;99.90;;;;;;5016283;28;20044;-70
2021/03/02 10:37:43;;;;;;;19.50;10.13;;;9.70;99.90;;;;;;5023112;28;20065;-71
2021/03/02 10:40:27;;;;;;;18.00;10.55;;;9.70;99.90;;;;;;5019166;28;20099;-70
2021/03/02 10:43:11;;;;;;;21.15;11.82;;;9.90;99.90;;;;;;5010736;28;20466;-69
2021/03/02 10:45:55;;;;;;;23.75;11.57;;;9.90;99.90;;;;;;5009675;28;20153;-70
2021/03/02 10:48:40;;;;;;;19.92;11.52;;;9.90;99.90;;;;;;5009880;28;20056;-70
2021/03/02 10:51:25;;;;;;;19.15;11.02;;;9.90;99.90;;;;;;5014934;28;20469;-71
2021/03/02 10:54:10;;;;;;;20.83;12.23;;;10.10;99.90;;;;;;5017563;28;20048;-70
2021/03/02 10:56:54;;;;;;;19.17;11.50;;;10.00;99.90;;;;;;5021746;28;20052;-70
2021/03/02 10:59:38;;;;;;;19.23;11.23;;;10.20;99.90;;;;;;5015953;28;20053;-71
2021/03/02 11:02:22;;;;;;;20.27;11.10;;;10.30;99.90;;;;;;5019759;28;20056;-70
2021/03/02 11:05:07;;;;;;;22.63;11.13;;;10.40;99.90;;;;;;5028573;28;20094;-71
2021/03/02 11:07:52;;;;;;;16.67;10.43;;;10.50;99.90;;;;;;5027243;28;20481;-71
2021/03/02 11:10:36;;;;;;;18.30;10.70;;;10.70;99.90;;;;;;5029110;28;20140;-71
2021/03/02 11:13:20;;;;;;;17.63;10.48;;;10.80;99.90;;;;;;5014177;28;20175;-71
2021/03/02 11:16:04;;;;;;;21.77;10.45;;;11.00;99.90;;;;;;5032672;28;20072;-70
2021/03/02 11:18:48;;;;;;;24.20;11.20;;;11.10;99.90;;;;;;5032313;28;20053;-70
2021/03/02 11:21:32;;;;;;;15.10;9.80;;;11.10;99.90;;;;;;5026713;28;20394;-70
2021/03/02 11:24:18;;;;;;;16.42;10.35;;;11.30;99.90;;;;;;5017166;28;20057;-71
2021/03/02 11:27:02;;;;;;;21.63;11.23;;;11.40;99.90;;;;;;5014809;28;20399;-71
2021/03/02 11:29:46;;;;;;;19.92;11.00;;;11.40;99.90;;;;;;5021436;28;20556;-70
2021/03/02 11:32:30;;;;;;;16.92;9.80;;;11.60;99.90;;;;;;5026977;28;20543;-70
2021/03/02 11:35:16;;;;;;;17.23;10.02;;;11.70;99.90;;;;;;5033535;28;20169;-71
2021/03/02 11:38:01;;;;;;;18.48;9.75;;;11.80;99.90;;;;;;5027393;28;20036;-71
2021/03/02 11:40:45;;;;;;;17.45;10.18;;;11.80;99.90;;;;;;5024680;28;20090;-71
2021/03/02 11:43:30;;;;;;;16.73;9.40;;;11.80;99.90;;;;;;5031829;28;20045;-71
2021/03/02 11:46:14;;;;;;;16.42;9.98;;;12.00;99.90;;;;;;5030033;28;20099;-71
2021/03/02 11:48:58;;;;;;;18.92;10.27;;;12.10;99.90;;;;;;5032615;28;20056;-71
2021/03/02 11:51:42;;;;;;;19.02;10.25;;;12.20;99.90;;;;;;5024588;28;20141;-71
2021/03/02 11:54:26;;;;;;;16.90;9.55;;;12.30;99.90;;;;;;5017748;28;20474;-71
2021/03/02 11:57:10;;;;;;;18.52;10.38;;;12.30;99.90;;;;;;5012533;28;20411;-71
2021/03/02 11:59:54;;;;;;;19.08;10.23;;;12.30;99.90;;;;;;5020100;28;20504;-73
2021/03/02 12:02:39;;;;;;;24.83;10.75;;;12.50;99.90;;;;;;5022757;28;20076;-71
2021/03/02 12:05:23;;;;;;;17.98;10.80;;;12.60;99.90;;;;;;5041610;28;20047;-71
2021/03/02 12:08:08;;;;;;;20.02;10.50;;;12.70;99.90;;;;;;5028225;28;20541;-71
2021/03/02 12:10:52;;;;;;;20.35;10.40;;;12.80;99.90;;;;;;5016047;28;20386;-71
2021/03/02 12:13:37;;;;;;;18.08;9.77;;;13.00;99.90;;;;;;5031870;28;20052;-71
2021/03/02 12:16:20;;;;;;;16.75;9.65;;;13.20;99.90;;;;;;5030268;28;22051;-72
2021/03/02 12:19:05;;;;;;;16.55;9.27;;;13.30;99.90;;;;;;5021405;28;20048;-71
2021/03/02 12:21:49;;;;;;;15.90;9.75;;;13.40;99.90;;;;;;5011831;28;20156;-72
2021/03/02 12:24:33;;;;;;;17.92;9.38;;;13.50;99.90;;;;;;5021463;28;20116;-71
2021/03/02 12:27:17;;;;;;;14.00;9.02;;;13.50;99.90;;;;;;5028659;28;20044;-72
2021/03/02 12:30:04;;;;;;;17.15;9.50;;;13.60;99.90;;;;;;5030574;28;20532;-71
2021/03/02 12:32:50;;;;;;;17.90;9.90;;;13.80;99.90;;;;;;5031069;28;20560;-69
2021/03/02 12:35:35;;;;;;;16.40;8.90;;;13.80;99.80;;;;;;5038982;28;20094;-70
2021/03/02 12:38:20;;;;;;;17.13;8.60;;;13.80;99.90;;;;;;5028403;28;20137;-71
2021/03/02 12:41:05;;;;;;;15.68;9.45;;;14.00;99.50;;;;;;5025723;28;20059;-71
2021/03/02 12:43:49;;;;;;;15.13;9.45;;;14.10;99.90;;;;;;5022418;28;20037;-71
2021/03/02 12:46:34;;;;;;;19.13;10.38;;;14.00;99.90;;;;;;5024754;28;20107;-71
2021/03/02 12:49:18;;;;;;;15.80;9.38;;;14.00;98.60;;;;;;5012398;28;20057;-71
2021/03/02 12:52:03;;;;;;;18.52;9.07;;;14.20;99.20;;;;;;5022210;28;20052;-71
2021/03/02 12:54:47;;;;;;;17.23;9.25;;;14.40;98.50;;;;;;5017384;28;20552;-71
2021/03/02 12:57:32;;;;;;;19.58;9.45;;;14.30;99.00;;;;;;5029934;28;20470;-71
2021/03/02 13:00:17;;;;;;;17.83;9.85;;;14.40;97.40;;;;;;5023788;28;20549;-71
2021/03/02 13:03:01;;;;;;;21.10;8.77;;;14.80;96.50;;;;;;5020194;28;20424;-71
2021/03/02 13:05:46;;;;;;;18.77;8.90;;;15.00;97.80;;;;;;5018957;28;20044;-70
2021/03/02 13:08:32;;;;;;;16.08;8.70;;;15.10;94.80;;;;;;5029537;28;20055;-70
2021/03/02 13:11:17;;;;;;;18.20;9.02;;;15.40;96.80;;;;;;5027652;28;20049;-70
2021/03/02 13:14:03;;;;;;;19.98;10.57;;;15.60;94.00;;;;;;5025059;28;20064;-70
2021/03/02 13:16:50;;;;;;;20.65;8.95;;;15.70;92.00;;;;;;5024153;28;20102;-70
2021/03/02 13:19:35;;;;;;;21.23;9.55;;;15.60;91.70;;;;;;5011376;28;20530;-71
2021/03/02 13:22:20;;;;;;;19.30;9.20;;;15.40;90.40;;;;;;5010580;28;20057;-71
2021/03/02 13:25:05;;;;;;;18.70;9.05;;;15.80;90.60;;;;;;5011638;28;20044;-70
2021/03/02 13:27:53;;;;;;;16.30;9.70;;;16.20;91.10;;;;;;5029081;28;20118;-71
2021/03/02 13:30:37;;;;;;;17.92;8.75;;;16.60;82.40;;;;;;5021858;28;20149;-71
2021/03/02 13:33:26;;;;;;;17.70;8.95;;;18.40;73.10;;;;;;5015987;28;20438;-71
2021/03/02 13:36:11;;;;;;;17.15;7.30;;;20.90;61.80;;;;;;5026427;28;20127;-71
2021/03/02 13:38:58;;;;;;;14.68;8.18;;;23.60;54.00;;;;;;5016780;28;20513;-71
2021/03/02 13:41:47;;;;;;;18.02;8.50;;;24.90;45.60;;;;;;5017617;28;20078;-71
2021/03/02 13:44:31;;;;;;;17.73;8.27;;;24.70;42.40;;;;;;5014468;28;20037;-72
2021/03/02 13:47:15;;;;;;;16.63;8.52;;;25.10;40.70;;;;;;5010534;28;20044;-72
2021/03/02 13:49:59;;;;;;;15.15;8.38;;;26.20;40.80;;;;;;5012685;28;20498;-72
2021/03/02 13:52:44;;;;;;;14.25;7.88;;;27.30;38.70;;;;;;5027496;28;20064;-71
2021/03/02 13:55:29;;;;;;;16.88;9.38;;;27.10;38.10;;;;;;5016096;28;20063;-72
2021/03/02 13:58:13;;;;;;;12.77;7.28;;;26.60;37.20;;;;;;5024430;28;20632;-70
2021/03/02 14:00:57;;;;;;;19.25;8.40;;;26.30;37.70;;;;;;5019087;28;20403;-70
2021/03/02 14:03:42;;;;;;;12.23;8.00;;;26.10;37.10;;;;;;5011786;28;20045;-71
2021/03/02 14:06:27;;;;;;;12.25;7.50;;;26.60;38.30;;;;;;5014100;28;20103;-71
2021/03/02 14:09:13;;;;;;;14.38;7.95;;;27.90;35.90;;;;;;5014281;28;20053;-71
2021/03/02 14:11:58;;;;;;;15.00;7.65;;;27.80;35.80;;;;;;5012062;28;20049;-71
2021/03/02 14:14:43;;;;;;;15.45;7.50;;;29.20;35.60;;;;;;5020667;28;20084;-69